createdAt,value
2023-03-13T00:00:27.802Z,54.95
2023-03-13T00:01:27.830Z,55.28
2023-03-13T00:02:27.960Z,54.88
2023-03-13T00:03:27.780Z,53.91
2023-03-13T00:04:27.788Z,54.66
2023-03-13T00:05:27.756Z,55.98
2023-03-13T00:06:27.753Z,54.87
2023-03-13T00:07:28.002Z,54.91
2023-03-13T00:08:27.736Z,54.67
2023-03-13T00:09:27.717Z,54.45
2023-03-13T00:10:27.727Z,55.96
2023-03-13T00:11:27.721Z,54.54
2023-03-13T00:12:27.700Z,54.40
2023-03-13T00:13:27.727Z,54.75
2023-03-13T00:14:27.681Z,54.39
2023-03-13T00:15:27.694Z,53.99
2023-03-13T00:16:27.758Z,54.25
2023-03-13T00:17:27.654Z,54.37
2023-03-13T00:18:27.677Z,54.27
2023-03-13T00:19:27.690Z,53.79
2023-03-13T00:20:27.659Z,53.97
2023-03-13T00:21:27.655Z,54.31
2023-03-13T00:22:27.651Z,54.52
2023-03-13T00:23:27.656Z,54.41
2023-03-13T00:24:27.628Z,55.57
2023-03-13T00:25:27.651Z,55.38
2023-03-13T00:26:27.593Z,54.36
2023-03-13T00:27:27.576Z,54.61
2023-03-13T00:28:27.576Z,54.98
2023-03-13T00:29:27.598Z,54.42
2023-03-13T00:30:27.589Z,54.03
2023-03-13T00:31:27.807Z,54.04
2023-03-13T00:32:27.559Z,54.50
2023-03-13T00:33:27.540Z,54.86
2023-03-13T00:34:27.582Z,55.07
2023-03-13T00:35:27.591Z,54.45
2023-03-13T00:36:27.560Z,54.51
2023-03-13T00:37:27.541Z,54.65
2023-03-13T00:38:27.506Z,54.99
2023-03-13T00:39:27.500Z,55.02
2023-03-13T00:40:27.506Z,55.35
2023-03-13T00:41:27.486Z,54.35
2023-03-13T00:42:27.475Z,55.75
2023-03-13T00:43:27.516Z,54.86
2023-03-13T00:44:27.467Z,54.10
2023-03-13T00:45:27.472Z,54.20
2023-03-13T00:46:27.572Z,54.27
2023-03-13T00:47:27.438Z,55.41
2023-03-13T00:48:27.442Z,56.64
2023-03-13T00:49:27.486Z,55.18
2023-03-13T00:50:27.443Z,54.53
2023-03-13T00:51:27.732Z,55.08
2023-03-13T00:52:27.414Z,54.99
2023-03-13T00:53:27.408Z,54.43
2023-03-13T00:54:27.406Z,54.65
2023-03-13T00:55:27.430Z,54.95
2023-03-13T00:56:27.375Z,56.54
2023-03-13T00:57:27.374Z,54.61
2023-03-13T00:58:27.354Z,54.92
2023-03-13T00:59:27.368Z,55.71
2023-03-13T01:00:27.337Z,55.31
2023-03-13T01:01:27.369Z,54.23
2023-03-13T01:02:27.484Z,54.28
2023-03-13T01:03:27.448Z,54.24
2023-03-13T01:04:27.346Z,54.21
2023-03-13T01:05:27.314Z,54.21
2023-03-13T01:06:27.320Z,54.21
2023-03-13T01:07:27.715Z,54.31
2023-03-13T01:08:27.289Z,54.73
2023-03-13T01:09:27.289Z,54.41
2023-03-13T01:10:27.278Z,54.20
2023-03-13T01:11:27.286Z,56.73
2023-03-13T01:12:27.305Z,55.40
2023-03-13T01:13:27.324Z,55.62
2023-03-13T01:14:27.257Z,56.37
2023-03-13T01:15:27.247Z,54.77
2023-03-13T01:16:27.249Z,54.11
2023-03-13T01:17:27.212Z,54.62
2023-03-13T01:18:27.211Z,54.81
2023-03-13T01:19:27.234Z,56.33
2023-03-13T01:20:27.234Z,55.17
2023-03-13T01:21:27.224Z,54.63
2023-03-13T01:22:27.170Z,56.03
2023-03-13T01:23:27.195Z,59.15
2023-03-13T01:24:27.177Z,55.58
2023-03-13T01:25:27.228Z,55.89
2023-03-13T01:26:27.166Z,54.41
2023-03-13T01:27:27.240Z,54.70
2023-03-13T01:28:27.143Z,56.79
2023-03-13T01:29:27.236Z,56.67
2023-03-13T01:30:27.119Z,55.14
2023-03-13T01:31:27.342Z,54.49
2023-03-13T01:32:27.136Z,54.31
2023-03-13T01:33:27.488Z,54.18
2023-03-13T01:34:27.101Z,54.38
2023-03-13T01:35:27.215Z,55.29
2023-03-13T01:36:27.105Z,54.32
2023-03-13T01:37:27.279Z,54.62
2023-03-13T01:38:27.082Z,56.37
2023-03-13T01:39:27.229Z,55.41
2023-03-13T01:40:27.068Z,54.76
2023-03-13T01:41:27.174Z,55.08
2023-03-13T01:42:27.043Z,54.93
2023-03-13T01:43:27.717Z,54.18
2023-03-13T01:44:27.017Z,54.31
2023-03-13T01:45:27.225Z,54.58
2023-03-13T01:46:27.164Z,54.33
2023-03-13T01:47:27.163Z,54.41
2023-03-13T01:48:27.047Z,54.77
2023-03-13T01:49:27.138Z,54.70
2023-03-13T01:50:26.993Z,54.33
2023-03-13T01:51:27.106Z,54.22
2023-03-13T01:52:27.017Z,55.12
2023-03-13T01:53:27.097Z,54.61
2023-03-13T01:54:26.949Z,54.10
2023-03-13T01:55:27.448Z,54.90
2023-03-13T01:56:26.994Z,54.77
2023-03-13T01:57:27.033Z,54.40
2023-03-13T01:58:26.934Z,54.85
2023-03-13T01:59:26.996Z,55.16
2023-03-13T02:00:26.933Z,54.78
2023-03-13T02:01:27.150Z,54.17
2023-03-13T02:02:26.922Z,53.96
2023-03-13T02:03:27.057Z,54.20
2023-03-13T02:04:26.897Z,54.43
2023-03-13T02:05:26.955Z,54.78
2023-03-13T02:06:26.918Z,55.13
2023-03-13T02:07:27.047Z,54.77
2023-03-13T02:08:26.838Z,54.36
2023-03-13T02:09:26.982Z,54.61
2023-03-13T02:10:26.879Z,54.64
2023-03-13T02:11:26.916Z,55.11
2023-03-13T02:12:26.806Z,55.06
2023-03-13T02:13:27.323Z,54.24
2023-03-13T02:14:26.810Z,54.11
2023-03-13T02:15:26.836Z,54.23
2023-03-13T02:16:26.838Z,53.93
2023-03-13T02:17:27.041Z,54.39
2023-03-13T02:18:26.815Z,54.46
2023-03-13T02:19:26.869Z,54.90
2023-03-13T02:20:26.767Z,55.70
2023-03-13T02:21:26.829Z,54.91
2023-03-13T02:22:26.737Z,54.44
2023-03-13T02:23:26.738Z,55.01
2023-03-13T02:24:26.761Z,54.94
2023-03-13T02:25:26.778Z,55.94
2023-03-13T02:26:26.725Z,55.17
2023-03-13T02:27:26.766Z,54.78
2023-03-13T02:28:26.685Z,54.63
2023-03-13T02:29:26.768Z,54.79
2023-03-13T02:30:26.687Z,54.33
2023-03-13T02:31:26.897Z,54.66
2023-03-13T02:32:26.764Z,54.38
2023-03-13T02:33:26.740Z,54.85
2023-03-13T02:34:26.659Z,54.69
2023-03-13T02:35:27.116Z,54.43
2023-03-13T02:36:26.691Z,54.89
2023-03-13T02:37:26.803Z,54.45
2023-03-13T02:38:26.654Z,55.39
2023-03-13T02:39:27.170Z,54.61
2023-03-13T02:40:26.615Z,55.77
2023-03-13T02:41:26.707Z,55.13
2023-03-13T02:42:26.613Z,54.76
2023-03-13T02:43:26.776Z,55.47
2023-03-13T02:44:26.581Z,55.65
2023-03-13T02:45:26.695Z,55.25
2023-03-13T02:46:26.682Z,55.42
2023-03-13T02:47:26.669Z,55.63
2023-03-13T02:48:26.561Z,54.94
2023-03-13T02:49:26.665Z,54.62
2023-03-13T02:50:26.567Z,57.57
2023-03-13T02:51:26.617Z,55.17
2023-03-13T02:52:26.524Z,54.67
2023-03-13T02:53:26.633Z,55.04
2023-03-13T02:54:26.519Z,54.32
2023-03-13T02:55:26.705Z,54.27
2023-03-13T02:56:26.521Z,54.64
2023-03-13T02:57:26.818Z,54.58
2023-03-13T02:58:26.513Z,54.87
2023-03-13T02:59:26.547Z,55.25
2023-03-13T03:00:26.500Z,55.83
2023-03-13T03:01:26.642Z,55.52
2023-03-13T03:02:26.477Z,55.58
2023-03-13T03:03:26.540Z,55.17
2023-03-13T03:04:26.473Z,57.10
2023-03-13T03:05:26.601Z,55.75
2023-03-13T03:06:26.467Z,55.33
2023-03-13T03:07:26.563Z,56.41
2023-03-13T03:08:26.412Z,59.66
2023-03-13T03:09:26.523Z,56.60
2023-03-13T03:10:26.426Z,56.74
2023-03-13T03:11:26.458Z,55.09
2023-03-13T03:12:26.389Z,56.15
2023-03-13T03:13:26.460Z,56.91
2023-03-13T03:14:26.392Z,55.10
2023-03-13T03:15:26.855Z,55.27
2023-03-13T03:16:26.382Z,57.09
2023-03-13T03:17:26.918Z,56.71
2023-03-13T03:18:26.339Z,57.59
2023-03-13T03:19:26.840Z,56.12
2023-03-13T03:20:26.336Z,55.74
2023-03-13T03:21:26.418Z,56.12
2023-03-13T03:22:26.305Z,55.66
2023-03-13T03:23:26.307Z,56.29
2023-03-13T03:24:26.295Z,57.03
2023-03-13T03:25:26.342Z,56.15
2023-03-13T03:26:26.279Z,55.56
2023-03-13T03:27:26.370Z,56.11
2023-03-13T03:28:26.265Z,57.11
2023-03-13T03:29:26.451Z,57.45
2023-03-13T03:30:26.243Z,56.89
2023-03-13T03:31:26.448Z,57.34
2023-03-13T03:32:26.230Z,56.46
2023-03-13T03:33:26.661Z,55.14
2023-03-13T03:34:26.222Z,56.94
2023-03-13T03:35:26.323Z,57.24
2023-03-13T03:36:26.198Z,56.71
2023-03-13T03:37:27.337Z,56.33
2023-03-13T03:38:26.188Z,57.91
2023-03-13T03:39:26.245Z,57.02
2023-03-13T03:40:26.155Z,56.49
2023-03-13T03:41:27.337Z,57.27
2023-03-13T03:42:26.152Z,55.79
2023-03-13T03:43:28.306Z,56.13
2023-03-13T03:44:26.144Z,56.54
2023-03-13T03:45:26.459Z,56.33
2023-03-13T03:46:26.132Z,56.19
2023-03-13T03:47:26.231Z,56.25
2023-03-13T03:48:27.180Z,56.67
2023-03-13T03:49:27.274Z,56.26
2023-03-13T03:50:26.102Z,59.06
2023-03-13T03:51:26.666Z,58.18
2023-03-13T03:52:26.088Z,57.78
2023-03-13T03:53:26.133Z,57.36
2023-03-13T03:54:26.082Z,58.38
2023-03-13T03:55:27.198Z,56.85
2023-03-13T03:56:26.052Z,56.54
2023-03-13T03:57:26.058Z,56.35
2023-03-13T03:58:26.044Z,57.36
2023-03-13T03:59:26.031Z,57.22
2023-03-13T04:00:26.081Z,56.90
2023-03-13T04:01:26.055Z,57.94
2023-03-13T04:02:26.074Z,58.56
2023-03-13T04:03:26.054Z,58.99
2023-03-13T04:04:25.993Z,58.63
2023-03-13T04:05:26.009Z,58.43
2023-03-13T04:06:25.983Z,56.47
2023-03-13T04:07:26.030Z,57.57
2023-03-13T04:08:25.990Z,57.20
2023-03-13T04:09:25.979Z,57.68
2023-03-13T04:10:25.972Z,57.02
2023-03-13T04:11:25.978Z,56.78
2023-03-13T04:12:25.956Z,57.84
2023-03-13T04:13:25.991Z,58.24
2023-03-13T04:14:25.920Z,59.65
2023-03-13T04:15:25.923Z,58.91
2023-03-13T04:16:25.973Z,59.61
2023-03-13T04:17:25.921Z,61.09
2023-03-13T04:18:25.900Z,58.37
2023-03-13T04:19:25.964Z,57.37
2023-03-13T04:20:25.915Z,58.95
2023-03-13T04:21:25.880Z,58.49
2023-03-13T04:22:25.887Z,58.14
2023-03-13T04:23:25.873Z,58.03
2023-03-13T04:24:25.878Z,58.83
2023-03-13T04:25:26.112Z,59.14
2023-03-13T04:26:25.851Z,59.08
2023-03-13T04:27:25.856Z,58.60
2023-03-13T04:28:25.864Z,58.11
2023-03-13T04:29:25.849Z,59.45
2023-03-13T04:30:25.829Z,60.01
2023-03-13T04:31:25.855Z,58.20
2023-03-13T04:32:25.833Z,62.63
2023-03-13T04:33:25.814Z,59.93
2023-03-13T04:34:25.822Z,60.57
2023-03-13T04:35:25.855Z,59.68
2023-03-13T04:36:25.868Z,58.64
2023-03-13T04:37:25.800Z,62.19
2023-03-13T04:38:25.769Z,62.06
2023-03-13T04:39:25.851Z,61.21
2023-03-13T04:40:25.768Z,58.55
2023-03-13T04:41:25.749Z,58.93
2023-03-13T04:42:25.740Z,59.14
2023-03-13T04:43:25.777Z,58.47
2023-03-13T04:44:25.742Z,58.09
2023-03-13T04:45:25.698Z,57.99
2023-03-13T04:46:25.817Z,60.37
2023-03-13T04:47:25.715Z,60.80
2023-03-13T04:48:25.697Z,59.69
2023-03-13T04:49:25.739Z,60.43
2023-03-13T04:50:25.698Z,58.99
2023-03-13T04:51:25.659Z,59.12
2023-03-13T04:52:25.659Z,58.36
2023-03-13T04:53:25.657Z,59.46
2023-03-13T04:54:25.688Z,59.47
2023-03-13T04:55:25.702Z,59.48
2023-03-13T04:56:41.742Z,59.09
2023-03-13T04:57:26.645Z,59.36
2023-03-13T04:58:25.634Z,58.14
2023-03-13T04:59:25.622Z,58.32
2023-03-13T05:00:25.620Z,59.20
2023-03-13T05:01:25.660Z,59.47
2023-03-13T05:02:25.613Z,60.01
2023-03-13T05:03:25.596Z,60.42
2023-03-13T05:04:25.623Z,61.26
2023-03-13T05:05:25.708Z,59.04
2023-03-13T05:06:25.598Z,60.28
2023-03-13T05:07:25.660Z,60.13
2023-03-13T05:08:25.533Z,60.58
2023-03-13T05:09:25.596Z,58.93
2023-03-13T05:10:25.563Z,59.14
2023-03-13T05:11:25.521Z,60.36
2023-03-13T05:12:25.517Z,61.33
2023-03-13T05:13:25.551Z,61.51
2023-03-13T05:14:25.498Z,61.77
2023-03-13T05:15:25.500Z,61.68
2023-03-13T05:16:25.501Z,60.22
2023-03-13T05:17:25.475Z,59.67
2023-03-13T05:18:25.476Z,60.69
2023-03-13T05:19:25.545Z,60.99
2023-03-13T05:20:25.452Z,61.33
2023-03-13T05:21:25.468Z,61.55
2023-03-13T05:22:25.495Z,60.53
2023-03-13T05:23:25.458Z,62.19
2023-03-13T05:24:25.446Z,62.29
2023-03-13T05:25:25.541Z,62.33
2023-03-13T05:26:25.425Z,60.92
2023-03-13T05:27:25.601Z,62.51
2023-03-13T05:28:25.411Z,62.51
2023-03-13T05:29:58.524Z,62.04
2023-03-13T05:30:26.425Z,62.95
2023-03-13T05:31:25.419Z,63.76
2023-03-13T05:32:25.582Z,60.87
2023-03-13T05:33:25.374Z,60.05
2023-03-13T05:34:25.372Z,60.01
2023-03-13T05:35:25.392Z,62.14
2023-03-13T05:36:25.393Z,62.25
2023-03-13T05:37:25.336Z,63.20
2023-03-13T05:38:25.357Z,62.88
2023-03-13T05:39:25.333Z,61.98
2023-03-13T05:40:25.318Z,62.54
2023-03-13T05:41:25.291Z,63.96
2023-03-13T05:42:25.337Z,63.98
2023-03-13T05:43:25.301Z,62.78
2023-03-13T05:44:25.283Z,61.22
2023-03-13T05:45:25.285Z,61.60
2023-03-13T05:46:25.298Z,62.42
2023-03-13T05:47:25.271Z,62.56
2023-03-13T05:48:25.278Z,61.25
2023-03-13T05:49:25.334Z,61.53
2023-03-13T05:50:25.247Z,63.61
2023-03-13T05:51:25.241Z,61.00
2023-03-13T05:52:25.251Z,60.87
2023-03-13T05:53:25.266Z,62.35
2023-03-13T05:54:25.292Z,63.09
2023-03-13T05:55:25.268Z,61.08
2023-03-13T05:56:25.205Z,61.07
2023-03-13T05:57:28.602Z,60.60
2023-03-13T05:58:25.244Z,62.10
2023-03-13T05:59:25.161Z,61.43
2023-03-13T06:00:25.240Z,61.86
2023-03-13T06:01:25.146Z,63.53
2023-03-13T06:02:25.166Z,62.74
2023-03-13T06:03:25.238Z,62.54
2023-03-13T06:04:25.260Z,61.89
2023-03-13T06:05:25.125Z,62.96
2023-03-13T06:06:25.190Z,64.07
2023-03-13T06:07:25.120Z,63.71
2023-03-13T06:08:25.116Z,73.83
2023-03-13T06:09:25.103Z,76.48
2023-03-13T06:10:25.113Z,73.02
2023-03-13T06:11:25.097Z,70.28
2023-03-13T06:12:25.128Z,67.12
2023-03-13T06:13:25.075Z,64.10
2023-03-13T06:14:25.065Z,63.56
2023-03-13T06:15:25.070Z,63.69
2023-03-13T06:16:25.185Z,62.18
2023-03-13T06:17:25.076Z,61.16
2023-03-13T06:18:25.080Z,62.00
2023-03-13T06:19:25.054Z,63.60
2023-03-13T06:20:25.052Z,61.56
2023-03-13T06:21:25.037Z,61.59
2023-03-13T06:22:25.007Z,62.35
2023-03-13T06:23:25.006Z,63.51
2023-03-13T06:24:25.044Z,63.71
2023-03-13T06:25:25.001Z,65.90
2023-03-13T06:26:24.973Z,63.66
2023-03-13T06:27:24.939Z,64.88
2023-03-13T06:28:24.969Z,64.54
2023-03-13T06:29:24.995Z,64.40
2023-03-13T06:30:25.367Z,63.08
2023-03-13T06:31:24.994Z,63.92
2023-03-13T06:32:24.977Z,64.73
2023-03-13T06:33:24.986Z,65.63
2023-03-13T06:34:24.888Z,63.10
2023-03-13T06:35:24.882Z,64.43
2023-03-13T06:36:24.964Z,63.09
2023-03-13T06:37:24.891Z,62.49
2023-03-13T06:38:24.901Z,63.13
2023-03-13T06:39:24.871Z,62.86
2023-03-13T06:40:24.862Z,64.08
2023-03-13T06:41:24.850Z,63.24
2023-03-13T06:42:24.970Z,65.39
2023-03-13T06:43:24.998Z,62.42
2023-03-13T06:44:24.867Z,63.09
2023-03-13T06:45:24.817Z,64.65
2023-03-13T06:46:24.948Z,63.35
2023-03-13T06:47:24.831Z,63.10
2023-03-13T06:48:24.849Z,63.72
2023-03-13T06:49:24.796Z,62.98
2023-03-13T06:50:24.810Z,63.43
2023-03-13T06:51:24.788Z,64.27
2023-03-13T06:52:37.454Z,63.68
2023-03-13T06:53:25.838Z,64.18
2023-03-13T06:54:24.778Z,63.86
2023-03-13T06:55:24.764Z,62.55
2023-03-13T06:56:24.758Z,62.32
2023-03-13T06:57:24.766Z,64.29
2023-03-13T06:58:32.074Z,63.88
2023-03-13T06:59:25.764Z,64.38
2023-03-13T07:00:24.757Z,63.42
2023-03-13T07:01:24.818Z,63.49
2023-03-13T07:02:24.739Z,64.66
2023-03-13T07:03:24.697Z,62.98
2023-03-13T07:04:24.684Z,61.04
2023-03-13T07:05:24.719Z,62.89
2023-03-13T07:06:24.739Z,63.21
2023-03-13T07:07:31.764Z,63.89
2023-03-13T07:08:25.702Z,63.58
2023-03-13T07:09:24.662Z,64.25
2023-03-13T07:10:25.201Z,62.51
2023-03-13T07:11:24.663Z,62.69
2023-03-13T07:12:24.639Z,62.39
2023-03-13T07:13:24.622Z,64.43
2023-03-13T07:14:24.634Z,63.23
2023-03-13T07:15:24.615Z,64.73
2023-03-13T07:16:24.655Z,66.11
2023-03-13T07:17:24.675Z,63.15
2023-03-13T07:18:24.618Z,64.41
2023-03-13T07:19:24.594Z,63.29
2023-03-13T07:20:24.642Z,63.64
2023-03-13T07:21:25.176Z,64.14
2023-03-13T07:22:24.597Z,63.04
2023-03-13T07:23:24.613Z,63.19
2023-03-13T07:24:24.593Z,62.89
2023-03-13T07:25:24.556Z,64.25
2023-03-13T07:26:24.595Z,63.91
2023-03-13T07:27:24.626Z,62.50
2023-03-13T07:28:24.561Z,62.95
2023-03-13T07:29:24.622Z,63.57
2023-03-13T07:30:24.509Z,62.06
2023-03-13T07:31:24.761Z,61.41
2023-03-13T07:32:24.561Z,62.44
2023-03-13T07:33:24.475Z,64.41
2023-03-13T07:34:24.492Z,65.65
2023-03-13T07:35:24.909Z,63.78
2023-03-13T07:36:24.558Z,62.51
2023-03-13T07:37:24.487Z,62.47
2023-03-13T07:38:24.473Z,63.64
2023-03-13T07:39:25.992Z,64.74
2023-03-13T07:40:24.447Z,63.03
2023-03-13T07:41:24.487Z,62.38
2023-03-13T07:42:24.435Z,62.17
2023-03-13T07:43:24.427Z,62.66
2023-03-13T07:44:24.428Z,63.80
2023-03-13T07:45:24.405Z,63.55
2023-03-13T07:46:24.504Z,62.01
2023-03-13T07:47:24.440Z,63.19
2023-03-13T07:48:24.408Z,60.97
2023-03-13T07:49:24.376Z,63.30
2023-03-13T07:50:24.431Z,62.17
2023-03-13T07:51:36.859Z,62.83
2023-03-13T07:52:25.415Z,63.49
2023-03-13T07:53:24.402Z,61.87
2023-03-13T07:54:24.338Z,63.26
2023-03-13T07:55:24.334Z,63.77
2023-03-13T07:56:24.349Z,63.73
2023-03-13T07:57:24.371Z,63.19
2023-03-13T07:58:24.372Z,61.42
2023-03-13T07:59:24.312Z,62.45
2023-03-13T08:00:24.296Z,60.97
2023-03-13T08:01:26.032Z,62.32
2023-03-13T08:02:24.358Z,63.03
2023-03-13T08:03:24.335Z,62.40
2023-03-13T08:04:24.302Z,62.22
2023-03-13T08:05:24.258Z,62.11
2023-03-13T08:06:24.257Z,63.79
2023-03-13T08:07:24.239Z,63.57
2023-03-13T08:08:24.257Z,62.57
2023-03-13T08:09:24.585Z,62.35
2023-03-13T08:10:24.283Z,61.74
2023-03-13T08:11:24.264Z,62.45
2023-03-13T08:12:24.236Z,63.27
2023-03-13T08:13:24.226Z,62.28
2023-03-13T08:14:24.201Z,62.66
2023-03-13T08:15:24.180Z,61.07
2023-03-13T08:16:24.264Z,62.25
2023-03-13T08:17:24.170Z,62.55
2023-03-13T08:18:24.170Z,62.58
2023-03-13T08:19:24.151Z,62.67
2023-03-13T08:20:24.163Z,62.64
2023-03-13T08:21:24.165Z,61.07
2023-03-13T08:22:24.180Z,61.42
2023-03-13T08:23:24.139Z,62.71
2023-03-13T08:24:24.115Z,61.82
2023-03-13T08:25:24.120Z,62.73
2023-03-13T08:26:24.101Z,63.43
2023-03-13T08:27:24.114Z,62.49
2023-03-13T08:28:24.167Z,61.91
2023-03-13T08:29:24.141Z,61.98
2023-03-13T08:30:24.082Z,62.02
2023-03-13T08:31:24.078Z,63.53
2023-03-13T08:32:24.159Z,63.28
2023-03-13T08:33:24.131Z,63.01
2023-03-13T08:34:24.077Z,61.23
2023-03-13T08:35:24.083Z,63.06
2023-03-13T08:36:24.043Z,61.61
2023-03-13T08:37:24.036Z,61.08
2023-03-13T08:38:24.009Z,62.03
2023-03-13T08:39:24.028Z,62.38
2023-03-13T08:40:24.270Z,62.29
2023-03-13T08:41:24.131Z,61.49
2023-03-13T08:42:24.015Z,63.78
2023-03-13T08:43:23.984Z,61.89
2023-03-13T08:44:23.982Z,61.38
2023-03-13T08:45:23.971Z,60.20
2023-03-13T08:46:24.052Z,61.91
2023-03-13T08:47:23.958Z,61.78
2023-03-13T08:48:23.958Z,62.12
2023-03-13T08:49:23.964Z,61.15
2023-03-13T08:50:23.950Z,61.87
2023-03-13T08:51:23.935Z,62.85
2023-03-13T08:52:24.002Z,63.42
2023-03-13T08:53:23.921Z,62.67
2023-03-13T08:54:23.942Z,62.74
2023-03-13T08:55:25.617Z,61.85
2023-03-13T08:56:23.916Z,61.27
2023-03-13T08:57:23.896Z,61.96
2023-03-13T08:58:23.918Z,62.94
2023-03-13T08:59:23.871Z,62.40
2023-03-13T09:00:23.896Z,60.72
2023-03-13T09:01:23.842Z,62.18
2023-03-13T09:02:23.892Z,60.80
2023-03-13T09:03:23.898Z,62.22
2023-03-13T09:04:23.891Z,61.41
2023-03-13T09:05:23.810Z,63.20
2023-03-13T09:06:23.807Z,62.10
2023-03-13T09:07:23.831Z,62.52
2023-03-13T09:08:23.836Z,62.31
2023-03-13T09:09:24.651Z,61.83
2023-03-13T09:10:23.852Z,62.34
2023-03-13T09:11:23.758Z,60.50
2023-03-13T09:12:30.740Z,61.61
2023-03-13T09:13:24.755Z,61.57
2023-03-13T09:14:23.739Z,60.92
2023-03-13T09:15:23.730Z,61.26
2023-03-13T09:16:23.855Z,60.84
2023-03-13T09:17:23.718Z,61.10
2023-03-13T09:18:23.773Z,60.07
2023-03-13T09:19:23.703Z,61.36
2023-03-13T09:20:23.759Z,61.30
2023-03-13T09:21:23.709Z,60.90
2023-03-13T09:22:23.741Z,61.00
2023-03-13T09:23:23.688Z,61.70
2023-03-13T09:24:23.662Z,60.59
2023-03-13T09:25:23.656Z,60.94
2023-03-13T09:26:23.748Z,63.52
2023-03-13T09:27:23.646Z,63.31
2023-03-13T09:28:23.725Z,64.32
2023-03-13T09:29:23.680Z,62.29
2023-03-13T09:30:23.676Z,61.80
2023-03-13T09:31:23.754Z,62.10
2023-03-13T09:32:23.628Z,62.79
2023-03-13T09:33:23.616Z,62.84
2023-03-13T09:34:23.669Z,66.44
2023-03-13T09:35:23.593Z,63.65
2023-03-13T09:36:23.684Z,62.71
2023-03-13T09:37:23.571Z,63.68
2023-03-13T09:38:23.585Z,61.20
2023-03-13T09:39:23.553Z,63.21
2023-03-13T09:40:23.624Z,61.26
2023-03-13T09:41:23.562Z,60.29
2023-03-13T09:42:23.557Z,61.99
2023-03-13T09:43:23.534Z,60.35
2023-03-13T09:44:23.531Z,61.38
2023-03-13T09:45:23.509Z,61.86
2023-03-13T09:46:23.660Z,60.99
2023-03-13T09:47:23.511Z,61.02
2023-03-13T09:48:23.489Z,62.11
2023-03-13T09:49:23.492Z,61.79
2023-03-13T09:50:23.491Z,61.35
2023-03-13T09:51:23.499Z,62.01
2023-03-13T09:52:23.511Z,63.04
2023-03-13T09:53:23.538Z,63.31
2023-03-13T09:54:23.450Z,61.25
2023-03-13T09:55:23.472Z,59.69
2023-03-13T09:56:23.608Z,61.73
2023-03-13T09:57:23.433Z,62.06
2023-03-13T09:58:23.492Z,60.32
2023-03-13T09:59:23.426Z,60.65
2023-03-13T10:00:23.417Z,60.54
2023-03-13T10:01:23.467Z,60.03
2023-03-13T10:02:23.409Z,59.07
2023-03-13T10:03:23.389Z,62.14
2023-03-13T10:04:23.448Z,59.69
2023-03-13T10:05:23.394Z,60.85
2023-03-13T10:06:23.402Z,59.39
2023-03-13T10:07:23.374Z,60.03
2023-03-13T10:08:23.341Z,60.63
2023-03-13T10:09:23.417Z,60.72
2023-03-13T10:10:23.407Z,61.45
2023-03-13T10:11:23.340Z,59.67
2023-03-13T10:12:23.322Z,59.78
2023-03-13T10:13:23.308Z,61.38
2023-03-13T10:14:23.324Z,61.36
2023-03-13T10:15:23.285Z,60.09
2023-03-13T10:16:23.421Z,59.43
2023-03-13T10:17:23.286Z,61.00
2023-03-13T10:18:23.304Z,61.49
2023-03-13T10:19:23.274Z,60.35
2023-03-13T10:20:23.274Z,61.74
2023-03-13T10:21:23.274Z,61.09
2023-03-13T10:22:23.285Z,62.19
2023-03-13T10:23:23.374Z,61.36
2023-03-13T10:24:23.244Z,60.37
2023-03-13T10:25:23.247Z,62.42
2023-03-13T10:26:23.214Z,61.57
2023-03-13T10:27:23.230Z,61.53
2023-03-13T10:28:23.224Z,61.41
2023-03-13T10:29:23.208Z,60.53
2023-03-13T10:30:23.219Z,61.55
2023-03-13T10:31:23.228Z,61.13
2023-03-13T10:32:23.264Z,61.58
2023-03-13T10:33:23.153Z,61.51
2023-03-13T10:34:23.209Z,60.07
2023-03-13T10:35:23.175Z,60.00
2023-03-13T10:36:23.148Z,60.16
2023-03-13T10:37:23.158Z,60.09
2023-03-13T10:38:25.587Z,60.13
2023-03-13T10:39:23.162Z,60.62
2023-03-13T10:40:23.193Z,61.09
2023-03-13T10:41:23.098Z,60.63
2023-03-13T10:42:23.113Z,61.36
2023-03-13T10:43:23.102Z,60.17
2023-03-13T10:44:23.134Z,61.51
2023-03-13T10:45:25.199Z,61.46
2023-03-13T10:46:23.154Z,62.42
2023-03-13T10:47:23.066Z,62.39
2023-03-13T10:48:23.067Z,62.71
2023-03-13T10:49:23.089Z,61.64
2023-03-13T10:50:23.066Z,61.39
2023-03-13T10:51:23.036Z,61.08
2023-03-13T10:52:23.075Z,62.31
2023-03-13T10:53:23.016Z,60.40
2023-03-13T10:54:23.004Z,60.66
2023-03-13T10:55:23.070Z,61.44
2023-03-13T10:56:23.019Z,62.38
2023-03-13T10:57:23.020Z,60.68
2023-03-13T10:58:23.063Z,60.72
2023-03-13T10:59:23.004Z,59.91
2023-03-13T11:00:22.975Z,59.98
2023-03-13T11:01:22.969Z,61.38
2023-03-13T11:02:23.009Z,61.93
2023-03-13T11:03:23.113Z,61.34
2023-03-13T11:04:22.999Z,61.35
2023-03-13T11:05:22.924Z,59.83
2023-03-13T11:06:22.930Z,60.05
2023-03-13T11:07:22.939Z,60.81
2023-03-13T11:08:23.009Z,61.27
2023-03-13T11:09:22.910Z,64.27
2023-03-13T11:10:22.948Z,61.05
2023-03-13T11:11:22.893Z,60.66
2023-03-13T11:12:22.864Z,60.00
2023-03-13T11:13:35.618Z,61.05
2023-03-13T11:14:23.867Z,61.05
2023-03-13T11:15:23.082Z,60.67
2023-03-13T11:16:23.068Z,61.05
2023-03-13T11:17:22.861Z,59.99
2023-03-13T11:18:22.895Z,60.49
2023-03-13T11:19:22.841Z,60.03
2023-03-13T11:20:22.849Z,58.92
2023-03-13T11:21:22.838Z,60.29
2023-03-13T11:22:22.903Z,60.22
2023-03-13T11:23:22.792Z,60.98
2023-03-13T11:24:22.833Z,60.26
2023-03-13T11:25:22.804Z,61.21
2023-03-13T11:26:22.798Z,61.73
2023-03-13T11:27:22.828Z,61.04
2023-03-13T11:28:22.827Z,62.43
2023-03-13T11:29:22.827Z,61.80
2023-03-13T11:30:22.837Z,60.73
2023-03-13T11:31:22.756Z,60.35
2023-03-13T11:32:22.805Z,60.36
2023-03-13T11:33:22.738Z,61.43
2023-03-13T11:34:22.802Z,60.98
2023-03-13T11:35:22.710Z,60.12
2023-03-13T11:36:22.711Z,61.20
2023-03-13T11:37:22.733Z,60.43
2023-03-13T11:38:22.662Z,60.53
2023-03-13T11:39:22.666Z,59.90
2023-03-13T11:40:22.754Z,60.65
2023-03-13T11:41:22.692Z,60.60
2023-03-13T11:42:22.682Z,61.60
2023-03-13T11:43:25.796Z,60.23
2023-03-13T11:44:22.668Z,60.13
2023-03-13T11:45:22.724Z,61.41
2023-03-13T11:46:23.137Z,59.93
2023-03-13T11:47:22.617Z,60.73
2023-03-13T11:48:22.614Z,60.54
2023-03-13T11:49:22.616Z,60.97
2023-03-13T11:50:22.594Z,60.47
2023-03-13T11:51:22.622Z,60.94
2023-03-13T11:52:22.619Z,60.75
2023-03-13T11:53:22.661Z,61.13
2023-03-13T11:54:22.547Z,59.62
2023-03-13T11:55:23.662Z,61.34
2023-03-13T11:56:22.624Z,60.85
2023-03-13T11:57:22.546Z,61.99
2023-03-13T11:58:22.598Z,60.31
2023-03-13T11:59:22.501Z,60.15
2023-03-13T12:00:22.524Z,62.02
2023-03-13T12:01:22.575Z,61.96
2023-03-13T12:02:22.574Z,60.82
2023-03-13T12:03:22.567Z,60.48
2023-03-13T12:04:22.533Z,59.86
2023-03-13T12:05:22.570Z,59.47
2023-03-13T12:06:28.398Z,61.05
2023-03-13T12:07:23.453Z,61.48
2023-03-13T12:08:22.465Z,61.48
2023-03-13T12:09:22.440Z,61.76
2023-03-13T12:10:22.501Z,61.16
2023-03-13T12:11:22.437Z,60.59
2023-03-13T12:12:22.437Z,61.53
2023-03-13T12:13:22.446Z,61.42
2023-03-13T12:14:22.449Z,60.48
2023-03-13T12:15:22.419Z,60.86
2023-03-13T12:16:22.495Z,60.68
2023-03-13T12:17:22.464Z,61.00
2023-03-13T12:18:22.419Z,60.03
2023-03-13T12:19:22.464Z,61.72
2023-03-13T12:20:22.391Z,61.27
2023-03-13T12:21:22.375Z,60.65
2023-03-13T12:22:22.420Z,62.53
2023-03-13T12:23:22.363Z,61.78
2023-03-13T12:24:22.316Z,60.87
2023-03-13T12:25:22.407Z,61.21
2023-03-13T12:26:22.397Z,62.82
2023-03-13T12:27:22.391Z,62.37
2023-03-13T12:28:23.982Z,60.86
2023-03-13T12:29:22.311Z,61.32
2023-03-13T12:30:22.407Z,62.32
2023-03-13T12:31:23.334Z,60.64
2023-03-13T12:32:22.361Z,61.67
2023-03-13T12:33:24.128Z,62.76
2023-03-13T12:34:22.309Z,61.17
2023-03-13T12:35:22.340Z,61.39
2023-03-13T12:36:22.306Z,61.03
2023-03-13T12:37:22.272Z,62.03
2023-03-13T12:38:22.266Z,61.90
2023-03-13T12:39:22.327Z,61.22
2023-03-13T12:40:22.389Z,61.60
2023-03-13T12:41:22.213Z,60.92
2023-03-13T12:42:22.250Z,61.06
2023-03-13T12:43:22.266Z,62.45
2023-03-13T12:44:22.396Z,61.74
2023-03-13T12:45:22.221Z,62.53
2023-03-13T12:46:22.678Z,67.42
2023-03-13T12:47:22.182Z,63.42
2023-03-13T12:48:22.238Z,61.83
2023-03-13T12:49:22.183Z,62.60
2023-03-13T12:50:22.157Z,63.33
2023-03-13T12:51:22.237Z,62.47
2023-03-13T12:52:22.319Z,61.85